Time;durP1;ratioP1;P1;durP2;ratioP2;P2;SDS_P1;SDS_P2;PMS_P1;PMS_P2;Temp;Humidity;BMP_temperature;BMP_pressure;BME280_temperature;BME280_humidity;BME280_pressure;Samples;Min_cycle;Max_cycle;Signal;HPM_P1;HPM_P2
2022/08/12 00:43:03;;;;;;;10.15;5.63;;;;;;;18.34;53.49;99863.00;5093662;28;20154;-69
2022/08/12 00:46:29;;;;;;;12.68;4.63;;;;;;;18.36;53.36;99857.50;5087359;28;20040;-67
2022/08/12 00:48:18;;;;;;;6.57;4.05;;;;;;;18.26;53.85;99856.56;5091427;28;20444;-67
2022/08/12 00:50:49;;;;;;;8.73;5.05;;;;;;;18.20;54.01;99857.91;5091730;28;20138;-67
2022/08/12 00:53:18;;;;;;;6.78;4.80;;;;;;;18.08;54.61;99858.88;5092583;28;20048;-66
2022/08/12 00:55:45;;;;;;;12.93;5.50;;;;;;;18.08;54.34;99859.72;5090780;28;20050;-67
2022/08/12 00:58:17;;;;;;;6.00;4.93;;;;;;;18.12;54.54;99871.88;5090607;28;20082;-66
2022/08/12 01:00:44;;;;;;;5.80;4.22;;;;;;;17.97;55.59;99863.25;5091092;28;20047;-67
2022/08/12 01:03:15;;;;;;;8.52;5.55;;;;;;;17.83;55.88;99866.16;5091122;28;20054;-65
2022/08/12 01:11:31;;;;;;;14.82;5.40;;;;;;;17.60;56.64;99875.91;5078538;28;20415;-67
2022/08/12 01:14:00;;;;;;;7.63;5.57;;;;;;;17.56;56.90;99871.78;5090219;28;20048;-67
2022/08/12 01:16:28;;;;;;;7.05;5.35;;;;;;;17.53;56.54;99874.69;5090723;28;20098;-67
2022/08/12 01:18:57;;;;;;;8.25;4.72;;;;;;;17.54;56.08;99871.03;5090576;28;20132;-67
2022/08/12 01:21:54;;;;;;;7.18;5.10;;;;;;;17.63;56.06;99862.34;5090298;28;20518;-65
2022/08/12 01:24:58;;;;;;;6.40;4.57;;;;;;;17.66;55.54;99864.75;5089755;28;20134;-67
2022/08/12 01:27:28;;;;;;;7.38;4.95;;;;;;;17.63;55.50;99870.34;5090514;28;20070;-67
2022/08/12 01:29:57;;;;;;;6.07;5.13;;;;;;;17.59;55.47;99874.19;5090312;28;20052;-67
2022/08/12 01:32:27;;;;;;;7.18;5.05;;;;;;;17.49;55.64;99876.72;5098539;28;20054;-67
2022/08/12 01:35:02;;;;;;;6.97;5.32;;;;;;;17.47;55.58;99869.81;5108917;28;20510;-66
2022/08/12 01:37:30;;;;;;;9.15;5.40;;;;;;;17.46;55.92;99873.44;5092466;28;20051;-68
2022/08/12 01:39:59;;;;;;;5.95;4.60;;;;;;;17.47;55.71;99877.81;5090138;28;20051;-66
2022/08/12 01:42:32;;;;;;;7.25;5.00;;;;;;;17.46;56.09;99874.28;5090162;28;20055;-66
2022/08/12 01:45:01;;;;;;;7.95;5.10;;;;;;;17.43;55.64;99871.88;5089825;28;20050;-66
2022/08/12 01:47:41;;;;;;;8.27;4.93;;;;;;;17.40;55.92;99874.78;5090673;28;20048;-65
2022/08/12 01:50:17;;;;;;;7.68;4.93;;;;;;;17.32;56.36;99874.50;5090203;28;20551;-67
2022/08/12 01:52:56;;;;;;;9.98;4.78;;;;;;;17.34;55.84;99876.06;5090174;28;20146;-68
2022/08/12 01:55:25;;;;;;;6.60;5.38;;;;;;;17.37;55.34;99867.84;5089584;28;20536;-67
2022/08/12 01:58:03;;;;;;;7.07;4.88;;;;;;;17.39;55.50;99868.56;5088412;28;20396;-67
2022/08/12 02:00:47;;;;;;;8.48;5.65;;;;;;;17.31;55.72;99870.97;5089963;28;20553;-67
2022/08/12 02:03:22;;;;;;;7.63;4.60;;;;;;;17.31;55.52;99863.00;5089790;28;20044;-67
2022/08/12 02:11:33;;;;;;;8.98;5.63;;;;;;;17.08;57.37;99866.53;5089869;28;20067;-67
2022/08/12 02:14:31;;;;;;;6.32;4.78;;;;;;;17.04;56.94;99868.59;5088976;28;20048;-66
2022/08/12 02:17:05;;;;;;;5.22;3.97;;;;;;;17.05;56.50;99853.44;5089524;28;20512;-66
2022/08/12 02:19:52;;;;;;;8.02;4.57;;;;;;;17.06;56.32;99861.34;5089468;28;20044;-67
2022/08/12 02:22:27;;;;;;;7.63;5.05;;;;;;;17.03;56.66;99863.38;5089385;28;20499;-65
2022/08/12 02:25:01;;;;;;;9.68;4.57;;;;;;;17.02;56.78;99857.19;5088914;28;20097;-66
2022/08/12 02:27:33;;;;;;;6.60;5.00;;;;;;;17.00;56.63;99863.59;5096778;28;20047;-65
2022/08/12 02:30:02;;;;;;;12.10;5.05;;;;;;;16.95;56.82;99856.78;5101333;28;20044;-66
2022/08/12 02:32:29;;;;;;;6.75;5.00;;;;;;;17.00;56.82;99856.44;5101858;28;20057;-66
2022/08/12 02:34:56;;;;;;;5.68;4.30;;;;;;;16.94;56.50;99862.25;5088773;28;20048;-65
2022/08/12 02:37:24;;;;;;;7.95;4.90;;;;;;;16.80;56.97;99855.28;5089494;28;20125;-67
2022/08/12 02:39:53;;;;;;;12.45;5.25;;;;;;;16.80;57.02;99851.78;5082635;28;20058;-67
2022/08/12 02:42:23;;;;;;;6.50;5.05;;;;;;;16.84;56.64;99855.91;5089209;28;20446;-66
2022/08/12 02:44:52;;;;;;;6.25;4.85;;;;;;;16.84;56.45;99854.09;5088452;28;20076;-65
2022/08/12 02:47:23;;;;;;;8.75;3.88;;;;;;;16.79;56.56;99852.75;5089057;28;20050;-66
2022/08/12 02:49:54;;;;;;;7.00;4.82;;;;;;;16.78;57.00;99861.66;5089326;28;20052;-66
2022/08/12 02:52:22;;;;;;;8.18;4.80;;;;;;;16.69;57.44;99863.19;5089317;28;20081;-67
2022/08/12 02:54:58;;;;;;;8.38;4.57;;;;;;;16.64;57.93;99865.34;5088460;28;20043;-67
2022/08/12 02:57:25;;;;;;;6.55;4.88;;;;;;;16.60;57.88;99858.53;5088590;28;20052;-67
2022/08/12 02:59:53;;;;;;;5.43;4.40;;;;;;;16.55;58.24;99863.34;5089313;28;20048;-68
2022/08/12 03:02:26;;;;;;;9.93;5.13;;;;;;;16.59;57.46;99865.69;5089108;28;20455;-67
2022/08/12 03:04:56;;;;;;;5.20;4.70;;;;;;;16.59;57.79;99860.34;5080565;28;20154;-67
2022/08/12 03:07:30;;;;;;;10.13;5.25;;;;;;;16.59;57.34;99859.47;5068864;28;20049;-66
2022/08/12 03:10:04;;;;;;;10.02;5.32;;;;;;;16.55;57.75;99861.53;5070791;28;20048;-67
2022/08/12 03:12:34;;;;;;;6.75;5.03;;;;;;;16.49;58.25;99857.50;5073019;28;20159;-68
2022/08/12 03:15:05;;;;;;;6.18;5.00;;;;;;;16.46;57.64;99857.72;5082885;28;20048;-67
2022/08/12 03:17:36;;;;;;;7.00;5.43;;;;;;;16.41;58.58;99851.88;5092852;28;20048;-65
2022/08/12 03:20:04;;;;;;;7.68;4.78;;;;;;;16.36;58.66;99850.50;5092958;28;20048;-66
2022/08/12 03:22:33;;;;;;;9.13;5.25;;;;;;;16.31;58.36;99850.84;5092883;28;20058;-67
2022/08/12 03:25:02;;;;;;;6.97;5.15;;;;;;;16.27;58.40;99844.91;5100347;28;20063;-66
2022/08/12 03:27:30;;;;;;;6.50;4.88;;;;;;;16.29;58.66;99850.09;5108675;28;20066;-67
2022/08/12 03:29:58;;;;;;;9.77;5.45;;;;;;;16.25;58.92;99852.13;5097483;28;20052;-66
2022/08/12 03:32:25;;;;;;;10.32;5.57;;;;;;;16.19;58.27;99841.06;5092894;28;20052;-65
2022/08/12 03:34:58;;;;;;;6.63;4.82;;;;;;;16.19;58.61;99852.56;5095432;28;20476;-65
2022/08/12 03:37:29;;;;;;;5.82;4.70;;;;;;;16.24;58.35;99846.91;5102316;28;20127;-66
2022/08/12 03:39:55;;;;;;;7.25;4.70;;;;;;;16.25;58.28;99852.13;5097259;28;20139;-65
2022/08/12 03:42:27;;;;;;;5.15;4.45;;;;;;;16.29;58.06;99847.44;5099923;28;20108;-67
2022/08/12 04:01:42;;;;;;;;;;;;;;;16.09;58.69;99840.88;5092691;28;20055;-68
2022/08/12 04:04:10;;;;;;;8.88;5.55;;;;;;;16.06;58.58;99839.28;5089680;28;19924;-67
2022/08/12 04:06:44;;;;;;;6.00;5.07;;;;;;;16.09;58.51;99843.53;5072181;28;20048;-67
2022/08/12 04:09:12;;;;;;;6.28;4.70;;;;;;;16.09;58.18;99841.72;5072039;28;20071;-67
2022/08/12 04:14:25;;;;;;;9.73;4.63;;;;;;;16.09;58.80;99835.56;5091280;28;20160;-65
2022/08/12 04:16:52;;;;;;;6.47;4.55;;;;;;;16.05;58.00;99836.75;5091672;28;20135;-66
2022/08/12 04:19:20;;;;;;;14.98;5.28;;;;;;;16.07;58.40;99829.50;5091687;28;20052;-66
2022/08/12 04:21:48;;;;;;;6.13;4.40;;;;;;;16.08;58.35;99841.84;5100488;28;20476;-65
2022/08/12 04:24:14;;;;;;;4.75;4.25;;;;;;;16.08;57.83;99844.53;5109671;28;20079;-66
2022/08/12 04:26:41;;;;;;;6.20;4.63;;;;;;;16.13;58.32;99844.19;5091630;28;20052;-67
2022/08/12 04:29:09;;;;;;;6.93;4.95;;;;;;;16.13;58.20;99847.69;5091700;28;20050;-67
2022/08/12 04:31:38;;;;;;;8.35;4.88;;;;;;;16.12;57.88;99847.78;5091628;28;20044;-66
2022/08/12 04:34:06;;;;;;;6.65;5.18;;;;;;;16.16;57.44;99846.63;5091185;28;20079;-66
2022/08/12 04:36:34;;;;;;;11.07;4.65;;;;;;;16.15;57.75;99845.78;5088283;28;20040;-67
2022/08/12 04:39:03;;;;;;;9.07;4.93;;;;;;;16.06;58.46;99836.63;5087972;28;20068;-68
2022/08/12 04:41:31;;;;;;;5.97;5.03;;;;;;;15.96;58.80;99842.72;5091617;28;20078;-67
2022/08/12 04:43:58;;;;;;;7.85;4.75;;;;;;;15.89;58.77;99843.16;5090831;28;20080;-69
2022/08/12 04:46:25;;;;;;;10.07;5.63;;;;;;;15.92;58.97;99846.56;5090797;28;20055;-66
2022/08/12 04:48:52;;;;;;;6.60;5.20;;;;;;;15.96;58.91;99848.03;5091250;28;20059;-67
2022/08/12 04:51:19;;;;;;;7.72;4.18;;;;;;;16.02;58.87;99845.81;5091461;28;20452;-66
2022/08/12 04:53:47;;;;;;;8.05;5.47;;;;;;;16.07;58.29;99845.47;5090998;28;20052;-66
2022/08/12 04:56:15;;;;;;;10.02;5.50;;;;;;;16.15;58.19;99840.47;5089957;28;20048;-68
2022/08/12 04:58:42;;;;;;;9.50;7.07;;;;;;;16.19;57.76;99849.91;5091530;28;20052;-66
2022/08/12 05:01:13;;;;;;;8.20;5.18;;;;;;;16.26;56.94;99853.81;5092455;28;20082;-65
2022/08/12 05:03:39;;;;;;;9.02;5.03;;;;;;;16.34;56.90;99850.59;5091322;28;20051;-65
2022/08/12 05:06:07;;;;;;;10.32;4.82;;;;;;;16.39;56.95;99858.25;5072377;28;20060;-67
2022/08/12 05:08:35;;;;;;;9.43;4.88;;;;;;;16.38;57.32;99860.09;5090647;28;20052;-66
2022/08/12 05:11:01;;;;;;;6.30;4.75;;;;;;;16.45;57.23;99855.19;5091505;28;20052;-66
2022/08/12 05:13:34;;;;;;;9.32;5.88;;;;;;;16.52;57.09;99853.78;5091109;28;20048;-66
2022/08/12 05:16:01;;;;;;;6.28;4.53;;;;;;;16.57;57.54;99851.63;5093661;28;20043;-66
2022/08/12 05:18:28;;;;;;;5.85;4.78;;;;;;;16.60;57.95;99847.88;5102543;28;20050;-67
2022/08/12 05:20:54;;;;;;;8.52;4.38;;;;;;;16.60;58.27;99845.22;5106024;28;20474;-65
2022/08/12 05:23:22;;;;;;;12.35;5.55;;;;;;;16.62;58.39;99849.47;5091041;28;20052;-66
2022/08/12 05:25:50;;;;;;;9.02;5.15;;;;;;;16.67;58.50;99838.50;5090370;28;20055;-66
2022/08/12 05:28:17;;;;;;;9.48;5.00;;;;;;;16.72;58.48;99846.97;5090919;28;20067;-66
2022/08/12 05:30:47;;;;;;;5.85;4.05;;;;;;;16.78;58.28;99849.22;5091255;28;20052;-67
2022/08/12 05:33:14;;;;;;;9.27;5.03;;;;;;;16.87;57.98;99848.53;5090162;28;20616;-67
2022/08/12 05:35:44;;;;;;;6.68;4.75;;;;;;;16.98;57.98;99852.22;5089655;28;20075;-67
2022/08/12 05:40:56;;;;;;;5.50;4.53;;;;;;;17.17;57.97;99850.69;5091210;28;20055;-66
2022/08/12 05:43:23;;;;;;;6.38;5.22;;;;;;;17.29;58.07;99850.75;5091255;28;20055;-69
2022/08/12 05:45:51;;;;;;;9.57;4.00;;;;;;;17.39;57.21;99857.06;5089837;28;20079;-66
2022/08/12 05:48:18;;;;;;;8.88;5.25;;;;;;;17.52;57.39;99854.31;5090135;28;20135;-66
2022/08/12 05:50:46;;;;;;;10.13;5.47;;;;;;;17.60;57.30;99843.91;5090383;28;20419;-67
2022/08/12 05:53:13;;;;;;;9.38;4.82;;;;;;;17.71;57.17;99848.41;5090016;28;20422;-68
2022/08/12 05:55:40;;;;;;;7.35;4.03;;;;;;;17.78;56.71;99846.97;5089350;28;20419;-67
2022/08/12 05:58:07;;;;;;;5.18;4.10;;;;;;;17.89;57.09;99849.66;5089322;28;20419;-67
2022/08/12 06:00:35;;;;;;;9.35;4.90;;;;;;;17.99;56.98;99847.97;5089955;28;20052;-66
2022/08/12 06:03:04;;;;;;;11.05;4.75;;;;;;;18.10;56.47;99849.78;5089715;28;20046;-68
2022/08/12 06:05:34;;;;;;;10.13;4.32;;;;;;;18.23;56.66;99854.97;5075992;28;20048;-68
2022/08/12 06:08:01;;;;;;;4.95;3.67;;;;;;;18.37;56.40;99848.56;5083794;28;20044;-67
2022/08/12 06:10:29;;;;;;;6.57;4.93;;;;;;;18.49;55.69;99849.38;5089741;28;20143;-67
2022/08/12 06:12:57;;;;;;;9.82;4.32;;;;;;;18.62;55.89;99853.59;5097693;28;20055;-67
2022/08/12 06:15:24;;;;;;;8.02;4.20;;;;;;;18.78;55.55;99849.69;5103928;28;20150;-66
2022/08/12 06:17:52;;;;;;;10.07;5.25;;;;;;;18.92;55.70;99851.22;5099034;27;20052;-68
2022/08/12 06:20:20;;;;;;;8.45;4.90;;;;;;;19.03;55.71;99849.34;5089749;28;20069;-67
2022/08/12 06:22:47;;;;;;;12.65;5.22;;;;;;;19.11;56.08;99846.03;5089570;28;20060;-67
2022/08/12 06:25:17;;;;;;;8.63;5.53;;;;;;;19.22;55.56;99845.13;5089094;28;20113;-67
2022/08/12 06:27:47;;;;;;;7.15;4.78;;;;;;;19.33;55.10;99850.41;5086483;28;20049;-67
2022/08/12 06:30:14;;;;;;;22.75;11.73;;;;;;;19.46;55.07;99848.38;5089692;28;20048;-67
2022/08/12 06:32:42;;;;;;;14.80;7.40;;;;;;;19.64;54.20;99847.78;5089410;28;20044;-66
2022/08/12 06:35:09;;;;;;;10.70;5.75;;;;;;;19.78;53.93;99846.63;5088767;28;20537;-67
2022/08/12 06:37:40;;;;;;;6.60;4.15;;;;;;;19.94;53.03;99850.53;5089618;28;20051;-66
2022/08/12 06:40:10;;;;;;;7.25;4.30;;;;;;;20.05;53.09;99838.88;5089429;28;20087;-66
2022/08/12 06:42:49;;;;;;;10.30;4.50;;;;;;;20.21;53.04;99838.38;5089202;28;20134;-66
2022/08/12 06:45:16;;;;;;;13.15;5.45;;;;;;;20.42;50.96;99840.13;5088111;28;20047;-67
2022/08/12 06:47:43;;;;;;;17.35;5.07;;;;;;;20.63;49.52;99835.53;5085816;28;20520;-66
2022/08/12 06:50:15;;;;;;;10.82;5.40;;;;;;;20.88;48.65;99836.00;5089324;28;20052;-66
2022/08/12 06:52:43;;;;;;;6.72;4.70;;;;;;;21.10;48.29;99827.66;5089390;28;20112;-67
2022/08/12 06:55:14;;;;;;;12.85;5.07;;;;;;;21.30;49.03;99836.53;5088447;28;20058;-67
2022/08/12 06:57:53;;;;;;;13.98;5.18;;;;;;;21.51;45.59;99827.47;5088768;28;20108;-66
2022/08/12 07:00:22;;;;;;;9.32;5.03;;;;;;;21.76;44.87;99817.97;5089060;28;20050;-67
2022/08/12 07:02:49;;;;;;;8.80;5.35;;;;;;;22.03;42.50;99823.34;5088994;28;20105;-67
2022/08/12 07:05:23;;;;;;;8.75;4.57;;;;;;;22.29;42.55;99823.53;5077247;28;20045;-65
2022/08/12 07:08:06;;;;;;;8.87;5.67;;;;;;;22.61;41.25;99821.34;5069763;28;20059;-67
2022/08/12 07:10:33;;;;;;;13.77;4.13;;;;;;;22.82;39.42;99823.78;5098266;28;20048;-66
2022/08/12 07:13:02;;;;;;;10.05;3.83;;;;;;;23.06;41.22;99824.03;5108186;28;20047;-67
2022/08/12 07:15:30;;;;;;;5.00;3.08;;;;;;;23.45;38.39;99826.31;5088036;28;20403;-66
2022/08/12 07:18:04;;;;;;;8.27;4.78;;;;;;;23.69;37.55;99819.41;5088655;28;20052;-64
2022/08/12 07:20:34;;;;;;;5.88;3.65;;;;;;;23.88;36.35;99829.16;5089212;28;20443;-67
2022/08/12 07:23:05;;;;;;;9.10;4.10;;;;;;;24.14;36.60;99829.94;5088793;28;20059;-67
2022/08/12 07:25:33;;;;;;;6.68;3.42;;;;;;;24.48;35.88;99828.22;5088388;28;20044;-68
2022/08/12 07:28:02;;;;;;;10.30;4.10;;;;;;;25.08;33.80;99828.00;5088707;28;20040;-67
2022/08/12 07:30:30;;;;;;;7.63;3.72;;;;;;;25.55;32.96;99832.72;5089275;28;20044;-68
2022/08/12 07:33:00;;;;;;;9.90;3.35;;;;;;;25.46;32.40;99829.19;5089694;28;20708;-67
2022/08/12 07:35:27;;;;;;;11.93;3.03;;;;;;;25.51;32.20;99828.66;5088670;28;20139;-66
2022/08/12 07:37:54;;;;;;;4.93;2.72;;;;;;;25.70;32.14;99824.75;5089130;28;20071;-66
2022/08/12 07:40:23;;;;;;;7.63;3.00;;;;;;;25.81;31.39;99829.78;5089124;28;20056;-67
2022/08/12 07:42:49;;;;;;;9.45;3.42;;;;;;;25.80;31.61;99830.81;5089423;28;20548;-66
2022/08/12 07:45:16;;;;;;;7.55;3.15;;;;;;;25.87;31.39;99829.13;5089171;28;20407;-66
2022/08/12 07:47:43;;;;;;;5.53;2.80;;;;;;;25.96;31.51;99834.50;5089516;28;20155;-65
2022/08/12 07:50:11;;;;;;;6.97;3.05;;;;;;;26.18;31.49;99839.13;5088796;28;20079;-66
2022/08/12 07:52:41;;;;;;;6.50;3.53;;;;;;;26.44;30.68;99828.03;5088562;28;20056;-65
2022/08/12 07:55:09;;;;;;;4.43;3.13;;;;;;;26.72;30.27;99825.69;5087834;28;20052;-66
2022/08/12 07:57:48;;;;;;;5.45;2.80;;;;;;;27.10;29.36;99825.78;5090622;28;20052;-66
2022/08/12 08:00:17;;;;;;;3.95;2.75;;;;;;;27.51;28.96;99822.72;5092125;28;20048;-66
2022/08/12 08:02:43;;;;;;;8.10;3.60;;;;;;;27.58;29.54;99823.66;5092217;28;20566;-68
2022/08/12 08:05:10;;;;;;;5.70;3.10;;;;;;;27.60;30.00;99823.47;5095620;28;20051;-67
2022/08/12 08:07:37;;;;;;;9.48;3.72;;;;;;;27.55;29.50;99840.28;5103642;28;20468;-67
2022/08/12 08:10:09;;;;;;;8.65;2.88;;;;;;;27.68;30.01;99827.97;5103706;28;20048;-67
2022/08/12 08:12:52;;;;;;;11.38;3.13;;;;;;;28.05;29.45;99838.75;5091405;28;20047;-67
2022/08/12 08:15:19;;;;;;;13.20;5.93;;;;;;;28.00;28.92;99835.75;5091330;28;20395;-68
2022/08/12 08:17:58;;;;;;;11.73;4.38;;;;;;;28.12;29.43;99836.13;5091783;28;20143;-66
2022/08/12 08:20:28;;;;;;;8.15;3.05;;;;;;;28.04;29.34;99837.06;5091917;28;20545;-67
2022/08/12 08:22:57;;;;;;;6.32;3.63;;;;;;;28.11;29.38;99830.88;5091698;28;20052;-66
2022/08/12 08:25:29;;;;;;;6.15;3.47;;;;;;;28.11;28.71;99830.88;5090714;28;20711;-67
2022/08/12 08:27:59;;;;;;;8.27;3.58;;;;;;;28.02;29.07;99833.69;5088291;28;20072;-67
2022/08/12 08:30:26;;;;;;;10.40;3.83;;;;;;;27.86;29.35;99822.22;5091390;28;20052;-67
2022/08/12 08:32:53;;;;;;;13.48;4.47;;;;;;;27.75;29.44;99832.47;5091749;28;20055;-69
2022/08/12 08:35:21;;;;;;;8.27;4.18;;;;;;;27.79;29.90;99830.22;5090432;28;20087;-68
2022/08/12 08:37:48;;;;;;;13.70;3.67;;;;;;;27.77;29.58;99833.13;5091427;28;20075;-67
2022/08/12 08:43:00;;;;;;;5.43;2.83;;;;;;;27.76;29.60;99827.88;5091488;28;20529;-67
2022/08/12 08:45:27;;;;;;;12.15;3.28;;;;;;;27.77;29.27;99832.28;5090761;28;20056;-65
2022/08/12 08:47:54;;;;;;;4.97;3.00;;;;;;;27.86;29.15;99828.47;5091245;28;20074;-65
2022/08/12 08:50:21;;;;;;;5.97;3.97;;;;;;;27.88;29.29;99837.25;5091184;28;20047;-67
2022/08/12 08:52:48;;;;;;;7.20;3.20;;;;;;;27.79;29.18;99832.94;5087550;28;20048;-65
2022/08/12 08:55:17;;;;;;;10.55;3.50;;;;;;;27.80;29.89;99837.31;5090654;28;20051;-67
2022/08/12 08:57:49;;;;;;;11.38;4.00;;;;;;;27.93;29.66;99828.56;5090402;28;20093;-67
2022/08/12 09:00:19;;;;;;;12.02;4.90;;;;;;;27.97;29.29;99830.72;5090821;28;20093;-66
2022/08/12 09:02:46;;;;;;;10.30;3.40;;;;;;;27.92;29.03;99827.72;5100280;28;20044;-67
2022/08/12 09:05:13;;;;;;;8.90;3.55;;;;;;;28.10;28.23;99831.94;5100133;28;20040;-65
2022/08/12 09:07:43;;;;;;;10.57;2.80;;;;;;;28.24;27.39;99836.50;5090366;28;20089;-65
2022/08/12 09:10:09;;;;;;;4.43;2.50;;;;;;;28.29;26.94;99830.50;5090671;28;20044;-65
2022/08/12 09:15:22;;;;;;;5.53;3.33;;;;;;;28.49;26.78;99823.47;5090831;28;20105;-66
2022/08/12 09:17:54;;;;;;;6.32;2.50;;;;;;;28.76;26.19;99819.19;5090664;28;20679;-66
2022/08/12 09:20:23;;;;;;;4.65;2.78;;;;;;;29.16;26.30;99821.47;5090393;28;20051;-65
2022/08/12 09:22:49;;;;;;;5.05;2.85;;;;;;;29.37;25.80;99823.31;5090589;28;20060;-66
2022/08/12 09:25:17;;;;;;;6.05;2.75;;;;;;;29.53;25.38;99825.72;5089877;28;20048;-66
2022/08/12 09:27:44;;;;;;;9.63;2.97;;;;;;;30.18;24.31;99829.91;5090308;28;20050;-67
2022/08/12 09:30:14;;;;;;;3.38;2.50;;;;;;;31.10;23.43;99819.53;5089971;28;20048;-66
2022/08/12 09:32:45;;;;;;;7.25;2.83;;;;;;;31.55;23.26;99814.31;5089710;28;20055;-66
2022/08/12 09:35:12;;;;;;;7.00;2.88;;;;;;;32.38;22.33;99821.03;5088487;28;20135;-66
2022/08/12 09:37:38;;;;;;;10.80;3.00;;;;;;;33.29;21.31;99817.13;5089519;28;20048;-66
2022/08/12 09:40:06;;;;;;;9.02;3.03;;;;;;;33.81;20.24;99819.59;5089163;28;20040;-68
2022/08/12 09:45:22;;;;;;;7.45;2.63;;;;;;;34.13;19.60;99809.34;5088978;28;20093;-68
2022/08/12 09:47:51;;;;;;;4.32;2.90;;;;;;;34.55;19.18;99817.66;5089649;28;20048;-66
2022/08/12 09:50:18;;;;;;;18.52;3.00;;;;;;;34.66;18.89;99814.16;5089159;28;20044;-68
2022/08/12 09:52:45;;;;;;;7.03;2.70;;;;;;;34.62;18.87;99805.56;5089156;28;20051;-66
2022/08/12 09:55:12;;;;;;;8.15;4.00;;;;;;;34.83;19.15;99815.16;5088389;28;20067;-67
2022/08/12 09:57:39;;;;;;;4.40;3.28;;;;;;;34.87;18.46;99811.97;5096829;28;20645;-69
2022/08/12 10:00:08;;;;;;;3.55;2.97;;;;;;;35.09;18.14;99806.75;5101321;28;20598;-68
2022/08/12 10:02:38;;;;;;;5.10;2.60;;;;;;;35.29;18.31;99810.03;5100470;28;20048;-66
2022/08/12 10:05:08;;;;;;;8.05;3.28;;;;;;;35.50;18.53;99796.81;5088091;28;20055;-65
2022/08/12 10:07:35;;;;;;;4.60;3.00;;;;;;;34.80;18.65;99795.63;5088992;28;20466;-66
2022/08/12 10:10:01;;;;;;;6.00;3.22;;;;;;;35.16;18.76;99791.06;5089074;28;20040;-68
2022/08/12 10:15:13;;;;;;;6.70;3.10;;;;;;;34.94;18.61;99790.78;5088197;28;20070;-66
2022/08/12 10:17:40;;;;;;;10.70;3.45;;;;;;;34.59;19.10;99775.09;5088732;28;20048;-66
2022/08/12 10:20:08;;;;;;;11.35;2.63;;;;;;;35.34;18.26;99779.16;5084323;28;20048;-66
2022/08/12 10:22:38;;;;;;;7.65;3.42;;;;;;;35.92;18.20;99780.22;5088615;28;20358;-66
2022/08/12 10:30:34;;;;;;;7.70;2.15;;;;;;;36.45;17.14;99774.44;5088574;28;20067;-67
2022/08/12 10:33:00;;;;;;;4.05;2.63;;;;;;;36.29;17.05;99764.25;5088643;28;20059;-68
2022/08/12 10:35:31;;;;;;;3.83;2.50;;;;;;;36.45;17.09;99768.09;5087705;28;20048;-67
2022/08/12 10:38:00;;;;;;;6.95;3.35;;;;;;;36.33;17.10;99769.00;5088525;28;20043;-66
2022/08/12 10:40:28;;;;;;;5.95;2.55;;;;;;;35.74;17.40;99760.09;5088910;28;20055;-68
2022/08/12 10:45:47;;;;;;;5.07;3.17;;;;;;;35.27;17.56;99760.09;5081814;28;20051;-67
2022/08/12 10:48:14;;;;;;;4.10;3.00;;;;;;;35.43;17.71;99758.53;5087171;28;20040;-67
2022/08/12 10:50:42;;;;;;;5.68;2.30;;;;;;;35.48;17.97;99750.44;5086909;28;20044;-67
2022/08/12 10:53:09;;;;;;;2.78;2.22;;;;;;;35.72;17.66;99740.28;5088684;28;20058;-67
2022/08/12 10:55:36;;;;;;;7.80;3.13;;;;;;;35.54;17.58;99745.88;5096475;28;20052;-67
2022/08/12 10:58:02;;;;;;;4.72;2.45;;;;;;;35.03;17.89;99746.34;5070204;28;20059;-66
2022/08/12 11:00:33;;;;;;;9.73;3.00;;;;;;;34.46;18.34;99756.06;5089394;28;20478;-68
2022/08/12 11:02:59;;;;;;;3.97;2.60;;;;;;;33.49;18.89;99749.41;5088592;28;20139;-67
2022/08/12 11:05:26;;;;;;;8.48;2.85;;;;;;;32.82;19.75;99749.16;5076788;28;20049;-68
2022/08/12 11:07:54;;;;;;;9.10;2.45;;;;;;;32.61;19.96;99750.38;5069375;28;20098;-68
2022/08/12 11:10:21;;;;;;;8.77;2.40;;;;;;;32.53;19.41;99747.91;5070680;28;20071;-66
2022/08/12 11:12:49;;;;;;;4.70;2.10;;;;;;;31.82;20.05;99744.19;5078108;28;20152;-65
2022/08/12 11:15:15;;;;;;;8.05;2.20;;;;;;;31.64;20.45;99735.88;5088022;28;20539;-67
2022/08/12 11:17:42;;;;;;;4.40;2.00;;;;;;;31.65;20.48;99732.09;5089048;28;20040;-68
2022/08/12 11:20:09;;;;;;;5.07;2.38;;;;;;;31.60;20.42;99737.34;5088463;28;20052;-68
2022/08/12 11:22:36;;;;;;;3.45;2.65;;;;;;;31.58;20.54;99726.69;5088392;28;20048;-68
2022/08/12 11:25:08;;;;;;;6.90;2.38;;;;;;;31.28;20.43;99731.72;5087230;28;20048;-67
2022/08/12 11:27:35;;;;;;;5.45;2.47;;;;;;;31.15;20.24;99729.03;5087702;28;20562;-65
2022/08/12 11:30:01;;;;;;;8.35;2.97;;;;;;;31.05;20.69;99729.47;5088358;28;20044;-68
2022/08/12 11:32:28;;;;;;;6.60;2.78;;;;;;;30.76;20.75;99728.78;5091931;28;20059;-68
2022/08/12 11:34:54;;;;;;;5.50;2.22;;;;;;;30.83;20.98;99722.56;5091402;28;20738;-67
2022/08/12 11:37:21;;;;;;;7.72;2.30;;;;;;;31.05;21.09;99720.47;5091686;28;20415;-69
2022/08/12 11:39:48;;;;;;;3.85;2.20;;;;;;;31.15;20.56;99715.41;5091554;28;20562;-68
2022/08/12 11:42:16;;;;;;;8.77;2.40;;;;;;;31.13;20.52;99718.34;5091358;28;20132;-68
2022/08/12 11:44:42;;;;;;;4.70;2.78;;;;;;;31.20;20.50;99726.50;5091177;28;20566;-67
2022/08/12 11:47:09;;;;;;;5.13;2.28;;;;;;;31.00;20.04;99727.38;5091748;28;20047;-67
2022/08/12 11:49:36;;;;;;;14.93;2.33;;;;;;;30.86;19.82;99720.25;5091588;28;20055;-66
2022/08/12 11:52:04;;;;;;;3.08;1.88;;;;;;;30.77;20.27;99707.88;5099587;28;20040;-67
2022/08/12 11:54:31;;;;;;;2.90;2.15;;;;;;;30.90;20.47;99716.06;5090845;28;20087;-67
2022/08/12 11:56:59;;;;;;;6.13;2.53;;;;;;;31.00;20.81;99721.09;5090959;28;20048;-66
2022/08/12 11:59:27;;;;;;;6.80;2.90;;;;;;;30.97;21.01;99722.34;5091497;28;20052;-65
2022/08/12 12:01:54;;;;;;;4.85;2.65;;;;;;;30.74;20.89;99708.28;5091531;28;20443;-68
2022/08/12 12:04:21;;;;;;;4.45;2.45;;;;;;;30.76;20.55;99711.63;5087320;28;20044;-67
2022/08/12 12:06:47;;;;;;;4.72;2.65;;;;;;;30.72;21.05;99708.50;5082079;28;20054;-66
2022/08/12 12:09:14;;;;;;;7.72;2.35;;;;;;;30.84;21.33;99710.59;5091039;28;20176;-67
2022/08/12 12:11:44;;;;;;;4.72;2.95;;;;;;;30.95;21.44;99699.09;5091371;28;20578;-66
2022/08/12 12:14:11;;;;;;;6.32;2.97;;;;;;;31.01;21.62;99699.09;5091384;28;20125;-67
2022/08/12 12:16:38;;;;;;;3.17;2.00;;;;;;;31.10;21.31;99699.72;5087319;28;20507;-66
2022/08/12 12:19:05;;;;;;;11.00;2.95;;;;;;;30.97;21.46;99702.47;5090900;28;20048;-65
2022/08/12 12:21:32;;;;;;;5.47;3.25;;;;;;;30.98;21.76;99706.84;5090527;28;20048;-66
2022/08/12 12:23:58;;;;;;;5.45;2.30;;;;;;;30.93;21.92;99696.56;5090115;28;20571;-67
2022/08/12 12:26:25;;;;;;;4.88;2.92;;;;;;;30.99;21.75;99701.19;5090966;28;20131;-67
2022/08/12 12:28:51;;;;;;;5.93;3.17;;;;;;;30.85;21.74;99687.81;5091068;28;20469;-66
2022/08/12 12:31:18;;;;;;;5.05;2.60;;;;;;;30.86;22.04;99682.13;5090922;28;20101;-66
2022/08/12 12:33:46;;;;;;;12.80;2.92;;;;;;;30.70;22.08;99680.66;5090839;28;20071;-66
2022/08/12 12:36:12;;;;;;;9.00;3.47;;;;;;;30.75;21.90;99678.13;5090026;28;20055;-68
2022/08/12 12:38:39;;;;;;;10.98;3.70;;;;;;;30.76;21.51;99673.53;5090237;28;20133;-66
2022/08/12 12:41:06;;;;;;;11.15;4.63;;;;;;;30.86;21.72;99675.84;5090455;28;20044;-66
2022/08/12 12:43:32;;;;;;;4.97;2.33;;;;;;;31.04;21.41;99667.88;5089470;28;20131;-67
2022/08/12 12:45:59;;;;;;;5.68;2.50;;;;;;;31.09;21.34;99657.19;5092733;28;20047;-67
2022/08/12 12:48:25;;;;;;;5.95;3.45;;;;;;;30.93;21.20;99660.34;5102335;28;20093;-67
2022/08/12 12:53:36;;;;;;;6.68;2.35;;;;;;;31.05;20.37;99644.22;5090101;28;20055;-66
2022/08/12 12:56:03;;;;;;;7.60;2.20;;;;;;;30.87;20.48;99661.22;5090948;28;20051;-66
2022/08/12 12:58:29;;;;;;;5.07;2.20;;;;;;;30.72;20.34;99650.50;5087540;28;20058;-66
2022/08/12 13:00:58;;;;;;;8.63;2.75;;;;;;;30.83;20.57;99652.63;5089963;28;20138;-68
2022/08/12 13:03:25;;;;;;;6.45;2.30;;;;;;;31.01;20.07;99641.06;5090072;28;20599;-69
2022/08/12 13:05:59;;;;;;;3.35;2.40;;;;;;;30.90;19.14;99645.28;5085814;28;20044;-69
2022/08/12 13:08:29;;;;;;;5.93;2.72;;;;;;;30.97;19.01;99634.38;5090148;28;20052;-67
2022/08/12 13:10:59;;;;;;;9.95;2.42;;;;;;;30.96;19.40;99646.31;5090014;28;20439;-67
2022/08/12 13:13:28;;;;;;;15.65;5.20;;;;;;;31.02;19.17;99643.59;5080451;28;20063;-66
2022/08/12 13:15:56;;;;;;;3.88;2.22;;;;;;;30.93;19.20;99630.41;5089328;28;20139;-68
2022/08/12 13:18:24;;;;;;;4.90;2.50;;;;;;;30.95;19.28;99634.59;5089968;28;20097;-67